Time;durP1;ratioP1;P1;durP2;ratioP2;P2;SDS_P1;SDS_P2;PMS_P1;PMS_P2;Temp;Humidity;BMP_temperature;BMP_pressure;BME280_temperature;BME280_humidity;BME280_pressure;Samples;Min_cycle;Max_cycle;Signal;HPM_P1;HPM_P2
2023/05/18 00:02:02;;;;;;;6.73;3.13;;;5.80;99.90;;;;;;5110827;28;20415;-72
2023/05/18 00:04:29;;;;;;;10.70;3.90;;;5.70;99.90;;;;;;5129986;27;20408;-72
2023/05/18 00:07:02;;;;;;;6.43;3.33;;;5.60;99.90;;;;;;5129283;27;20434;-72
2023/05/18 00:09:29;;;;;;;4.80;3.67;;;5.60;99.90;;;;;;5110508;28;20435;-72
2023/05/18 00:11:56;;;;;;;9.70;3.83;;;5.60;99.90;;;;;;5132947;27;20892;-72
2023/05/18 00:14:22;;;;;;;6.63;3.83;;;5.70;99.90;;;;;;5114672;27;20419;-72
2023/05/18 00:16:48;;;;;;;7.33;3.80;;;5.70;99.90;;;;;;5133135;27;20437;-72
2023/05/18 00:19:14;;;;;;;6.33;3.70;;;5.50;99.90;;;;;;5133240;27;20484;-72
2023/05/18 00:21:45;;;;;;;6.63;3.07;;;5.50;99.90;;;;;;5133073;27;20463;-73
2023/05/18 00:24:11;;;;;;;7.27;3.70;;;5.40;99.90;;;;;;5133059;27;20418;-73
2023/05/18 00:26:42;;;;;;;12.37;3.53;;;5.40;99.90;;;;;;5114252;27;20454;-72
2023/05/18 00:29:08;;;;;;;7.40;3.10;;;5.40;99.90;;;;;;5132955;27;20394;-72
2023/05/18 00:31:35;;;;;;;5.30;3.90;;;5.50;99.90;;;;;;5132862;27;20432;-73
2023/05/18 00:34:08;;;;;;;5.87;3.60;;;5.50;99.90;;;;;;5132814;27;20494;-73
2023/05/18 00:36:35;;;;;;;4.63;3.70;;;5.40;99.90;;;;;;5132716;27;20431;-73
2023/05/18 00:39:01;;;;;;;4.80;3.23;;;5.20;99.90;;;;;;5114023;27;20429;-72
2023/05/18 00:41:27;;;;;;;4.90;3.17;;;5.20;99.90;;;;;;5113990;27;20435;-72
2023/05/18 00:43:53;;;;;;;5.90;4.07;;;5.10;99.90;;;;;;5132612;27;21071;-72
2023/05/18 00:46:19;;;;;;;6.77;3.50;;;5.10;99.90;;;;;;5132527;27;20442;-72
2023/05/18 00:48:45;;;;;;;7.57;3.47;;;5.10;99.90;;;;;;5132772;27;20411;-72
2023/05/18 00:51:11;;;;;;;10.70;3.70;;;5.10;99.90;;;;;;5132793;27;20782;-73
2023/05/18 00:53:37;;;;;;;7.30;4.20;;;5.10;99.90;;;;;;5132464;27;20465;-72
2023/05/18 00:56:03;;;;;;;7.10;3.67;;;5.10;99.90;;;;;;5132568;27;20201;-71
2023/05/18 00:58:33;;;;;;;9.03;3.97;;;5.10;99.90;;;;;;5132881;27;20189;-72
2023/05/18 01:01:01;;;;;;;8.47;3.87;;;5.10;99.90;;;;;;5114119;27;20430;-71
2023/05/18 01:03:28;;;;;;;10.63;3.50;;;5.10;99.90;;;;;;5132421;27;20411;-71
2023/05/18 01:05:56;;;;;;;7.33;3.20;;;5.10;99.90;;;;;;5132313;27;20922;-72
2023/05/18 01:08:23;;;;;;;4.70;4.10;;;5.00;99.90;;;;;;5132574;27;20418;-71
2023/05/18 01:11:04;;;;;;;10.10;3.20;;;5.00;99.90;;;;;;5132619;27;20475;-71
2023/05/18 01:13:56;;;;;;;6.60;4.40;;;5.00;99.90;;;;;;5132537;27;20605;-72
2023/05/18 01:16:26;;;;;;;4.80;3.27;;;5.00;99.90;;;;;;5092895;27;20446;-72
2023/05/18 01:19:06;;;;;;;5.97;3.90;;;5.00;99.90;;;;;;5113878;27;20501;-71
2023/05/18 01:22:03;;;;;;;7.30;3.63;;;5.00;99.90;;;;;;5131860;27;20410;-71
2023/05/18 01:24:41;;;;;;;7.13;3.53;;;4.90;99.90;;;;;;5113260;27;20423;-72
2023/05/18 01:27:08;;;;;;;6.90;3.80;;;4.90;99.90;;;;;;5131480;27;20417;-72
2023/05/18 01:29:34;;;;;;;3.93;2.90;;;4.90;99.90;;;;;;5131646;27;20418;-71
2023/05/18 01:32:00;;;;;;;6.20;3.67;;;4.80;99.90;;;;;;5112558;27;20462;-71
2023/05/18 01:34:26;;;;;;;9.00;3.40;;;4.80;99.90;;;;;;5131706;27;20479;-73
2023/05/18 01:36:51;;;;;;;4.40;3.00;;;4.70;99.90;;;;;;5131750;27;20197;-73
2023/05/18 01:39:18;;;;;;;10.67;3.90;;;4.70;99.90;;;;;;5131489;27;20181;-74
2023/05/18 01:42:02;;;;;;;6.93;4.60;;;4.60;99.90;;;;;;5131061;27;20196;-73
2023/05/18 01:44:39;;;;;;;8.70;4.63;;;4.60;99.90;;;;;;5131405;27;20414;-73
2023/05/18 01:47:13;;;;;;;8.40;5.23;;;4.60;99.90;;;;;;5131485;27;20437;-72
2023/05/18 01:49:49;;;;;;;5.17;3.67;;;4.60;99.90;;;;;;5112646;27;21030;-73
2023/05/18 01:52:44;;;;;;;7.57;3.90;;;4.60;99.90;;;;;;5131128;27;21048;-73
2023/05/18 01:55:11;;;;;;;9.00;4.37;;;4.60;99.90;;;;;;5102986;27;20437;-73
2023/05/18 01:57:40;;;;;;;8.27;4.33;;;4.60;99.90;;;;;;5112202;27;20494;-73
2023/05/18 02:00:06;;;;;;;9.23;3.70;;;4.60;99.90;;;;;;5112223;27;20519;-73
2023/05/18 02:02:32;;;;;;;11.17;4.27;;;4.50;99.90;;;;;;5131063;27;20426;-73
2023/05/18 02:04:58;;;;;;;12.30;5.20;;;4.50;99.90;;;;;;5112333;27;20956;-73
2023/05/18 02:07:23;;;;;;;8.40;4.57;;;4.50;99.90;;;;;;5130745;27;20454;-73
2023/05/18 02:09:49;;;;;;;9.53;4.50;;;4.40;99.90;;;;;;5095248;27;20594;-73
2023/05/18 02:12:15;;;;;;;13.27;4.97;;;4.40;99.90;;;;;;5130621;27;20220;-73
2023/05/18 02:14:41;;;;;;;7.07;5.17;;;4.20;99.90;;;;;;5130726;27;20183;-73
2023/05/18 02:17:07;;;;;;;11.67;6.40;;;4.10;99.90;;;;;;5130445;27;20572;-73
2023/05/18 02:19:32;;;;;;;6.90;4.30;;;4.10;99.90;;;;;;5130561;27;20185;-73
2023/05/18 02:21:58;;;;;;;8.47;5.70;;;4.10;99.90;;;;;;5130631;27;20428;-73
2023/05/18 02:24:24;;;;;;;8.63;5.40;;;4.10;99.90;;;;;;5111991;27;20246;-73
2023/05/18 02:26:50;;;;;;;9.97;5.07;;;4.20;99.90;;;;;;5130504;27;20799;-73
2023/05/18 02:29:16;;;;;;;7.23;5.20;;;4.10;99.90;;;;;;5130429;27;20232;-73
2023/05/18 02:31:42;;;;;;;6.90;4.07;;;4.10;99.90;;;;;;5130362;27;20818;-73
2023/05/18 02:34:07;;;;;;;8.37;4.97;;;4.10;99.90;;;;;;5129715;27;20421;-73
2023/05/18 02:36:38;;;;;;;6.10;3.87;;;4.10;99.90;;;;;;5130174;27;20282;-72
2023/05/18 02:39:05;;;;;;;10.10;4.87;;;4.10;99.90;;;;;;5130224;27;20916;-73
2023/05/18 02:41:31;;;;;;;13.35;4.43;;;4.10;99.90;;;;;;5130204;27;20521;-72
2023/05/18 02:43:57;;;;;;;6.90;4.53;;;4.10;99.90;;;;;;5130187;27;20192;-73
2023/05/18 02:46:23;;;;;;;8.83;4.10;;;4.10;99.90;;;;;;5130081;27;20441;-72
2023/05/18 02:48:48;;;;;;;9.57;4.60;;;4.00;99.90;;;;;;5094381;27;20185;-72
2023/05/18 02:51:14;;;;;;;12.93;5.33;;;4.10;99.90;;;;;;5129905;27;20418;-72
2023/05/18 02:53:42;;;;;;;14.90;5.57;;;4.00;99.90;;;;;;5129989;27;20716;-72
2023/05/18 02:56:08;;;;;;;8.47;5.37;;;4.10;99.90;;;;;;5129950;27;20703;-72
2023/05/18 02:58:34;;;;;;;8.30;4.20;;;4.10;99.90;;;;;;5129916;27;20426;-72
2023/05/18 03:01:02;;;;;;;8.43;4.63;;;4.10;99.90;;;;;;5111556;27;20951;-72
2023/05/18 03:03:28;;;;;;;12.20;5.43;;;4.00;99.90;;;;;;5111823;27;20189;-72
2023/05/18 03:05:54;;;;;;;6.70;4.67;;;3.90;99.90;;;;;;5111240;27;20455;-72
2023/05/18 03:08:25;;;;;;;6.37;4.77;;;3.90;99.90;;;;;;5129684;27;20418;-73
2023/05/18 03:10:51;;;;;;;15.57;4.93;;;3.90;99.90;;;;;;5129858;27;20181;-72
2023/05/18 03:13:17;;;;;;;11.97;5.80;;;3.90;99.90;;;;;;5129697;27;20955;-73
2023/05/18 03:15:44;;;;;;;10.27;5.30;;;3.90;99.90;;;;;;5129596;27;20448;-72
2023/05/18 03:18:10;;;;;;;11.00;6.20;;;3.90;99.90;;;;;;5129681;27;20256;-72
2023/05/18 03:20:36;;;;;;;7.93;5.90;;;3.90;99.90;;;;;;5111323;27;20181;-72
2023/05/18 03:23:03;;;;;;;10.50;6.57;;;4.00;99.90;;;;;;5111283;27;20422;-72
2023/05/18 03:25:29;;;;;;;11.47;6.90;;;4.00;99.90;;;;;;5129522;27;20418;-72
2023/05/18 03:27:55;;;;;;;11.50;6.10;;;4.00;99.90;;;;;;5111009;28;20444;-72
2023/05/18 03:30:21;;;;;;;14.40;6.53;;;4.00;99.90;;;;;;5110830;27;20842;-73
2023/05/18 03:32:47;;;;;;;8.33;5.37;;;3.90;99.90;;;;;;5129627;27;20472;-72
2023/05/18 03:35:13;;;;;;;10.23;6.20;;;3.90;99.90;;;;;;5130033;27;20399;-71
2023/05/18 03:37:39;;;;;;;11.85;5.32;;;4.00;99.90;;;;;;5111233;28;20995;-72
2023/05/18 03:40:11;;;;;;;8.93;5.10;;;3.80;99.90;;;;;;5130174;28;20189;-71
2023/05/18 03:42:37;;;;;;;9.93;5.17;;;3.70;99.90;;;;;;5130125;28;20440;-71
2023/05/18 03:45:03;;;;;;;8.90;6.10;;;3.80;99.90;;;;;;5132695;27;20838;-73
2023/05/18 03:47:29;;;;;;;8.07;5.10;;;3.70;99.90;;;;;;5134474;27;20468;-74
2023/05/18 03:49:54;;;;;;;8.00;4.80;;;3.80;99.90;;;;;;5115983;27;20766;-72
2023/05/18 03:52:21;;;;;;;8.93;5.83;;;3.80;99.90;;;;;;5134773;27;20211;-73
2023/05/18 03:54:48;;;;;;;12.13;6.27;;;3.80;99.90;;;;;;5134346;27;20192;-73
2023/05/18 03:57:17;;;;;;;11.23;5.90;;;3.80;99.90;;;;;;5099038;27;20992;-73
2023/05/18 03:59:44;;;;;;;9.50;5.23;;;3.80;99.90;;;;;;5134262;27;20436;-72
2023/05/18 04:02:10;;;;;;;14.70;5.50;;;3.70;99.90;;;;;;5115234;27;20464;-73
2023/05/18 04:04:36;;;;;;;12.93;6.30;;;3.70;99.90;;;;;;5134673;27;20185;-72
2023/05/18 04:07:04;;;;;;;11.13;5.65;;;3.70;99.90;;;;;;5114979;27;20468;-72
2023/05/18 04:09:31;;;;;;;9.27;4.53;;;3.80;99.90;;;;;;5133322;27;20180;-72
2023/05/18 04:11:57;;;;;;;10.50;4.87;;;3.80;99.90;;;;;;5133072;27;20199;-72
2023/05/18 04:14:23;;;;;;;8.37;3.87;;;3.80;99.90;;;;;;5114454;27;20951;-72
2023/05/18 04:16:51;;;;;;;6.93;4.22;;;3.80;99.90;;;;;;5133109;27;20194;-72
2023/05/18 04:19:17;;;;;;;10.20;4.80;;;3.90;99.90;;;;;;5133156;27;20666;-72
2023/05/18 04:21:46;;;;;;;8.63;5.30;;;4.00;99.90;;;;;;5133174;27;20425;-72
2023/05/18 04:24:13;;;;;;;8.37;4.47;;;4.20;99.90;;;;;;5133049;27;20505;-72
2023/05/18 04:26:40;;;;;;;7.57;4.32;;;4.20;99.90;;;;;;5132768;27;20535;-72
2023/05/18 04:29:06;;;;;;;10.33;4.50;;;4.30;99.90;;;;;;5133073;27;20252;-72
2023/05/18 04:31:33;;;;;;;6.90;4.57;;;4.30;99.90;;;;;;5133050;27;20415;-72
2023/05/18 04:34:00;;;;;;;9.70;4.50;;;4.40;99.90;;;;;;5132866;27;20476;-72
2023/05/18 04:36:29;;;;;;;11.07;5.05;;;4.50;99.90;;;;;;5132756;27;20826;-71
2023/05/18 04:38:57;;;;;;;10.17;4.80;;;4.60;99.90;;;;;;5132678;27;20600;-72
2023/05/18 04:41:24;;;;;;;9.57;3.95;;;4.70;99.90;;;;;;5132341;27;20451;-73
2023/05/18 04:43:50;;;;;;;8.10;4.93;;;4.70;99.90;;;;;;5114222;27;20198;-73
2023/05/18 04:46:15;;;;;;;8.83;4.60;;;4.80;99.90;;;;;;5132733;27;20695;-73
2023/05/18 04:48:41;;;;;;;7.00;4.40;;;4.90;99.90;;;;;;5132684;27;20862;-73
2023/05/18 04:51:07;;;;;;;10.20;5.47;;;4.90;99.90;;;;;;5134454;27;20555;-73
2023/05/18 04:53:34;;;;;;;8.30;5.20;;;5.00;99.90;;;;;;5120154;27;20454;-73
2023/05/18 04:56:00;;;;;;;6.13;4.70;;;5.20;99.90;;;;;;5137199;27;20193;-73
2023/05/18 04:58:26;;;;;;;6.73;4.80;;;5.30;99.90;;;;;;5101845;27;20493;-73
2023/05/18 05:00:53;;;;;;;11.57;6.20;;;5.20;99.90;;;;;;5139278;27;20403;-73
2023/05/18 05:03:19;;;;;;;8.03;5.50;;;5.30;99.90;;;;;;5139296;27;20428;-73
2023/05/18 05:05:45;;;;;;;8.57;5.33;;;5.20;99.90;;;;;;5120094;27;20825;-73
2023/05/18 05:08:11;;;;;;;9.93;5.20;;;5.20;99.90;;;;;;5138666;27;20423;-72
2023/05/18 05:10:37;;;;;;;8.33;5.17;;;5.30;99.90;;;;;;5138624;27;20902;-73
2023/05/18 05:13:03;;;;;;;7.93;5.87;;;5.40;99.90;;;;;;5119906;27;20466;-73
2023/05/18 05:15:29;;;;;;;9.00;5.23;;;5.50;99.90;;;;;;5138342;27;20238;-73
2023/05/18 05:17:55;;;;;;;8.80;5.40;;;5.80;99.90;;;;;;5138354;27;20406;-73
2023/05/18 05:20:20;;;;;;;7.87;5.50;;;5.80;99.90;;;;;;5119818;27;20411;-73
2023/05/18 05:22:46;;;;;;;8.30;5.63;;;6.00;99.90;;;;;;5119691;27;20526;-73
2023/05/18 05:25:12;;;;;;;6.50;5.40;;;6.10;99.90;;;;;;5138407;27;20659;-74
2023/05/18 05:27:37;;;;;;;11.80;6.10;;;6.10;99.90;;;;;;5119870;27;20201;-73
2023/05/18 05:30:04;;;;;;;7.97;5.00;;;6.30;99.90;;;;;;5119305;27;20202;-72
2023/05/18 05:32:29;;;;;;;10.23;5.40;;;6.40;99.90;;;;;;5137980;27;20200;-74
2023/05/18 05:34:55;;;;;;;10.20;5.17;;;6.60;99.90;;;;;;5119294;27;20425;-73
2023/05/18 05:37:20;;;;;;;12.90;5.53;;;6.70;99.90;;;;;;5137592;27;20201;-73
2023/05/18 05:39:46;;;;;;;10.83;6.17;;;6.80;99.90;;;;;;5137407;27;20657;-73
2023/05/18 05:42:12;;;;;;;10.53;6.20;;;7.00;99.90;;;;;;5137547;27;20197;-73
2023/05/18 05:44:39;;;;;;;13.53;6.07;;;7.10;99.90;;;;;;5138084;27;20188;-73
2023/05/18 05:47:05;;;;;;;7.93;5.30;;;7.20;99.90;;;;;;5137302;27;20457;-73
2023/05/18 05:49:31;;;;;;;12.70;5.80;;;7.30;99.90;;;;;;5136526;27;20922;-72
2023/05/18 05:51:56;;;;;;;8.27;5.30;;;7.40;99.90;;;;;;5136051;27;20472;-73
2023/05/18 05:54:22;;;;;;;8.63;5.93;;;7.50;99.90;;;;;;5135261;27;20173;-73
2023/05/18 05:56:48;;;;;;;13.57;6.23;;;7.60;99.90;;;;;;5135831;27;20197;-73
2023/05/18 05:59:14;;;;;;;10.43;5.27;;;7.70;99.90;;;;;;5117340;27;20182;-74
2023/05/18 06:01:40;;;;;;;20.60;6.00;;;7.80;99.90;;;;;;5133958;27;20423;-73
2023/05/18 06:04:09;;;;;;;14.00;6.33;;;8.00;99.90;;;;;;5131674;27;20182;-72
2023/05/18 06:06:37;;;;;;;9.23;6.70;;;8.10;99.90;;;;;;5112694;27;20206;-72
2023/05/18 06:09:03;;;;;;;10.07;5.47;;;8.20;99.90;;;;;;5111942;27;20427;-72
2023/05/18 06:11:30;;;;;;;12.77;5.07;;;8.40;99.90;;;;;;5112531;27;20433;-72
2023/05/18 06:13:55;;;;;;;9.60;5.63;;;8.50;99.90;;;;;;5130791;27;20514;-71
2023/05/18 06:16:21;;;;;;;10.57;4.67;;;8.60;99.90;;;;;;5130878;27;20919;-72
2023/05/18 06:18:47;;;;;;;13.10;5.17;;;8.80;99.90;;;;;;5130515;27;20189;-72
2023/05/18 06:21:14;;;;;;;18.40;6.00;;;9.00;99.90;;;;;;5130678;27;20364;-72
2023/05/18 06:23:40;;;;;;;10.00;4.80;;;9.00;99.90;;;;;;5130463;27;20510;-72
2023/05/18 06:26:05;;;;;;;10.80;5.37;;;9.10;99.90;;;;;;5130375;27;21064;-72
2023/05/18 06:28:31;;;;;;;8.80;4.60;;;9.20;99.90;;;;;;5130467;27;20188;-72
2023/05/18 06:30:57;;;;;;;9.70;4.53;;;9.40;99.90;;;;;;5130250;27;20180;-72
2023/05/18 06:33:23;;;;;;;10.27;4.50;;;9.70;99.90;;;;;;5111360;27;20588;-72
2023/05/18 06:35:50;;;;;;;8.60;4.83;;;9.70;99.90;;;;;;5130088;27;20432;-72
2023/05/18 06:38:15;;;;;;;14.30;6.47;;;10.00;99.90;;;;;;5130240;27;20184;-71
2023/05/18 06:40:41;;;;;;;11.70;4.90;;;10.10;99.90;;;;;;5130311;27;20407;-72
2023/05/18 06:43:07;;;;;;;14.00;5.00;;;10.00;99.90;;;;;;5130206;27;20683;-72
2023/05/18 06:45:32;;;;;;;11.73;4.20;;;10.00;99.90;;;;;;5111395;27;20194;-72
2023/05/18 06:47:58;;;;;;;11.07;5.23;;;10.10;99.90;;;;;;5111642;27;20197;-72
2023/05/18 06:50:24;;;;;;;10.57;5.03;;;10.20;99.90;;;;;;5130248;27;20185;-72
2023/05/18 06:52:50;;;;;;;15.50;4.63;;;10.40;99.90;;;;;;5130027;27;20209;-72
2023/05/18 06:55:16;;;;;;;11.50;6.00;;;10.40;99.90;;;;;;5130199;27;20175;-72
2023/05/18 06:57:42;;;;;;;12.70;4.60;;;10.50;99.90;;;;;;5111148;27;20462;-72
2023/05/18 07:00:09;;;;;;;10.83;4.87;;;10.60;99.90;;;;;;5130079;27;20411;-73
2023/05/18 07:02:35;;;;;;;7.77;5.20;;;10.60;99.90;;;;;;5111033;27;20324;-72
2023/05/18 07:05:03;;;;;;;12.70;4.50;;;10.80;99.90;;;;;;5129918;27;20498;-72
2023/05/18 07:07:30;;;;;;;11.43;3.80;;;10.90;99.90;;;;;;5129706;27;20262;-72
2023/05/18 07:09:56;;;;;;;16.53;4.90;;;11.00;99.90;;;;;;5110507;27;20470;-72
2023/05/18 07:12:21;;;;;;;11.20;4.90;;;11.00;99.90;;;;;;5129100;27;21045;-73
2023/05/18 07:14:47;;;;;;;11.67;4.97;;;10.90;99.90;;;;;;5110380;27;20531;-72
2023/05/18 07:17:13;;;;;;;11.07;4.70;;;10.90;99.90;;;;;;5128769;27;20199;-72
2023/05/18 07:19:38;;;;;;;11.03;4.00;;;11.00;99.90;;;;;;5128709;27;20200;-72
2023/05/18 07:22:06;;;;;;;10.80;5.40;;;11.00;99.90;;;;;;5128492;27;20182;-73
2023/05/18 07:24:31;;;;;;;8.40;4.60;;;11.00;99.90;;;;;;5128485;27;20188;-72
2023/05/18 07:26:57;;;;;;;10.43;4.80;;;11.00;99.90;;;;;;5128564;27;21011;-72
2023/05/18 07:29:23;;;;;;;11.10;4.50;;;11.10;99.90;;;;;;5128313;27;20680;-72
2023/05/18 07:31:49;;;;;;;11.57;4.83;;;11.20;99.90;;;;;;5128143;27;20181;-72
2023/05/18 07:34:14;;;;;;;9.97;5.10;;;11.40;99.90;;;;;;5128422;27;20184;-72
2023/05/18 07:36:40;;;;;;;10.50;4.10;;;11.40;99.90;;;;;;5128192;27;20207;-72
2023/05/18 07:39:06;;;;;;;9.60;4.97;;;11.60;99.90;;;;;;5109632;27;20177;-72
2023/05/18 07:41:32;;;;;;;7.40;4.30;;;11.60;99.90;;;;;;5109003;28;20269;-73
2023/05/18 07:43:58;;;;;;;13.53;4.70;;;11.80;99.90;;;;;;5127845;28;20833;-72
2023/05/18 07:46:24;;;;;;;6.47;4.10;;;12.00;99.90;;;;;;5109611;28;20435;-72
2023/05/18 07:48:49;;;;;;;12.67;4.73;;;12.00;99.90;;;;;;5109332;28;20182;-73
2023/05/18 07:51:15;;;;;;;8.87;4.40;;;12.10;99.90;;;;;;5127793;28;20415;-72
2023/05/18 07:53:41;;;;;;;10.17;4.50;;;12.20;99.90;;;;;;5128139;27;20277;-72
2023/05/18 07:56:07;;;;;;;11.83;5.43;;;12.30;99.90;;;;;;5128043;27;20267;-72
2023/05/18 07:58:34;;;;;;;10.40;5.20;;;12.50;99.90;;;;;;5128427;28;20194;-73
2023/05/18 08:01:00;;;;;;;8.83;4.00;;;12.50;99.90;;;;;;5128266;28;20449;-73
2023/05/18 08:03:27;;;;;;;10.47;4.83;;;12.70;99.90;;;;;;5128503;28;20532;-70
2023/05/18 08:05:52;;;;;;;10.07;4.53;;;12.80;99.90;;;;;;5128562;27;20752;-72
2023/05/18 08:08:19;;;;;;;8.77;4.93;;;12.80;99.90;;;;;;5128567;27;20414;-73
2023/05/18 08:10:45;;;;;;;11.60;4.87;;;12.80;99.90;;;;;;5128653;28;20187;-73
2023/05/18 08:13:10;;;;;;;8.10;5.00;;;13.00;99.90;;;;;;5128455;27;20475;-73
2023/05/18 08:15:39;;;;;;;9.40;5.07;;;13.20;99.90;;;;;;5128664;27;20446;-70
2023/05/18 08:18:05;;;;;;;7.80;4.10;;;13.40;99.90;;;;;;5128498;27;20184;-72
2023/05/18 08:20:30;;;;;;;9.17;4.17;;;13.50;99.90;;;;;;5128486;28;20513;-72
2023/05/18 08:22:56;;;;;;;11.63;5.10;;;13.50;99.90;;;;;;5128485;28;20837;-72
2023/05/18 08:25:22;;;;;;;10.53;4.70;;;13.60;99.90;;;;;;5128515;27;20191;-72
2023/05/18 08:27:48;;;;;;;11.87;4.30;;;13.80;99.90;;;;;;5109683;28;20575;-72
2023/05/18 08:30:14;;;;;;;10.87;4.50;;;13.70;99.90;;;;;;5128173;27;20461;-70
2023/05/18 08:32:40;;;;;;;9.33;4.17;;;13.60;99.90;;;;;;5131378;27;20460;-70
2023/05/18 08:35:07;;;;;;;10.27;4.63;;;13.60;99.90;;;;;;5131842;27;20470;-72
2023/05/18 08:37:33;;;;;;;9.73;4.30;;;13.70;99.90;;;;;;5112714;27;20325;-72
2023/05/18 08:39:58;;;;;;;7.17;3.57;;;13.80;99.90;;;;;;5131617;27;20897;-70
2023/05/18 08:42:42;;;;;;;7.97;3.07;;;13.90;99.90;;;;;;5131351;27;20453;-72
2023/05/18 08:45:12;;;;;;;9.97;3.90;;;14.00;99.90;;;;;;5112793;27;20202;-70
2023/05/18 08:47:38;;;;;;;6.73;4.00;;;14.00;99.90;;;;;;5131273;27;20553;-72
2023/05/18 08:50:04;;;;;;;14.40;4.70;;;14.30;99.90;;;;;;5131353;27;20913;-70
2023/05/18 08:52:35;;;;;;;14.60;4.10;;;14.80;99.90;;;;;;5131011;27;20490;-73
2023/05/18 08:55:05;;;;;;;8.93;4.20;;;14.90;99.90;;;;;;5131246;27;20418;-71
2023/05/18 08:57:34;;;;;;;8.50;3.70;;;15.20;99.60;;;;;;5112447;27;20453;-70
2023/05/18 09:00:01;;;;;;;13.00;4.30;;;15.50;99.00;;;;;;5131207;27;20450;-72
2023/05/18 09:02:28;;;;;;;10.63;4.10;;;15.60;98.50;;;;;;5131421;27;21124;-70
2023/05/18 09:04:55;;;;;;;11.43;4.30;;;16.00;98.50;;;;;;5130903;27;20427;-72
2023/05/18 09:07:21;;;;;;;8.60;3.13;;;16.20;99.20;;;;;;5130792;27;20549;-72
2023/05/18 09:09:47;;;;;;;10.17;4.10;;;16.40;98.90;;;;;;5130707;27;20509;-71
2023/05/18 09:12:15;;;;;;;9.67;4.30;;;16.20;98.20;;;;;;5112513;27;20538;-70
2023/05/18 09:14:42;;;;;;;7.20;4.17;;;16.10;98.40;;;;;;5112242;27;20417;-74
2023/05/18 09:17:08;;;;;;;18.13;4.23;;;15.80;97.30;;;;;;5130868;27;20442;-72
2023/05/18 09:19:34;;;;;;;12.97;5.20;;;15.80;97.60;;;;;;5130857;27;21291;-71
2023/05/18 09:22:00;;;;;;;11.33;4.07;;;16.10;97.90;;;;;;5130782;27;20418;-71
2023/05/18 09:24:26;;;;;;;10.93;3.67;;;15.90;97.80;;;;;;5111964;27;20181;-71
2023/05/18 09:26:51;;;;;;;11.47;4.30;;;16.00;97.80;;;;;;5130554;27;20270;-70
2023/05/18 09:29:19;;;;;;;9.60;3.47;;;16.30;97.30;;;;;;5130611;27;20181;-71
2023/05/18 09:31:46;;;;;;;9.70;3.57;;;16.80;98.10;;;;;;5130282;27;20423;-71
2023/05/18 09:34:12;;;;;;;10.40;4.40;;;17.30;96.90;;;;;;5130236;27;20834;-71
2023/05/18 09:36:38;;;;;;;8.03;4.10;;;17.90;96.90;;;;;;5130286;27;20439;-71
2023/05/18 09:39:08;;;;;;;9.07;3.73;;;17.90;96.40;;;;;;5130320;27;20451;-72
2023/05/18 09:41:37;;;;;;;9.63;3.60;;;18.20;95.00;;;;;;5130227;27;20198;-70
2023/05/18 09:44:07;;;;;;;9.47;3.77;;;18.60;95.60;;;;;;5130506;27;20917;-71
2023/05/18 09:46:36;;;;;;;10.10;3.60;;;19.20;94.50;;;;;;5130476;27;20441;-73
2023/05/18 09:49:03;;;;;;;7.03;3.50;;;19.40;94.30;;;;;;5130900;27;20892;-72
2023/05/18 09:51:30;;;;;;;11.40;3.00;;;19.50;94.10;;;;;;5130924;27;20543;-73
2023/05/18 09:53:57;;;;;;;10.30;3.20;;;19.20;93.90;;;;;;5112271;27;20487;-71
2023/05/18 09:56:26;;;;;;;11.70;3.03;;;19.00;92.30;;;;;;5130734;27;20794;-71
2023/05/18 09:58:52;;;;;;;8.60;3.33;;;19.60;94.40;;;;;;5130838;27;20415;-73
2023/05/18 10:01:18;;;;;;;7.40;3.40;;;20.10;94.70;;;;;;5130618;27;20411;-72
2023/05/18 10:03:47;;;;;;;16.23;3.37;;;20.40;95.50;;;;;;5130653;27;20478;-68
2023/05/18 10:06:13;;;;;;;15.50;5.37;;;20.70;97.20;;;;;;5111902;27;20474;-70
2023/05/18 10:08:39;;;;;;;25.83;9.60;;;20.70;96.00;;;;;;5111796;27;20421;-71
2023/05/18 10:11:06;;;;;;;7.67;3.37;;;20.80;95.00;;;;;;5130228;27;20780;-70
2023/05/18 10:13:33;;;;;;;7.80;2.90;;;20.80;96.30;;;;;;5130159;27;20491;-71
2023/05/18 10:16:02;;;;;;;8.17;3.40;;;20.40;93.70;;;;;;5111325;27;20438;-70
2023/05/18 10:18:28;;;;;;;7.10;3.03;;;20.30;95.00;;;;;;5130170;27;20423;-71
2023/05/18 10:20:59;;;;;;;10.80;3.73;;;20.50;95.70;;;;;;5129737;27;20442;-71
2023/05/18 10:23:26;;;;;;;9.17;3.13;;;20.70;94.30;;;;;;5111947;27;20446;-70
2023/05/18 10:25:53;;;;;;;8.07;3.40;;;20.90;96.20;;;;;;5129723;27;20434;-71
2023/05/18 10:28:27;;;;;;;10.37;3.17;;;21.00;95.00;;;;;;5094156;27;20426;-70
2023/05/18 10:30:54;;;;;;;7.30;2.70;;;21.30;95.90;;;;;;5129426;27;20514;-71
2023/05/18 10:33:23;;;;;;;7.00;3.20;;;21.40;94.60;;;;;;5129169;27;20904;-70
2023/05/18 10:35:49;;;;;;;6.23;3.10;;;21.00;95.60;;;;;;5110948;27;20458;-71
2023/05/18 10:38:26;;;;;;;7.90;3.23;;;21.20;94.50;;;;;;5129056;27;20407;-70
2023/05/18 10:40:55;;;;;;;7.70;3.40;;;21.30;93.70;;;;;;5110031;27;20431;-71
2023/05/18 10:43:26;;;;;;;11.40;3.53;;;21.30;92.40;;;;;;5129268;27;20440;-70
2023/05/18 10:45:58;;;;;;;7.43;3.27;;;21.30;93.20;;;;;;5128954;27;20448;-70
2023/05/18 10:48:24;;;;;;;7.00;3.67;;;21.60;94.40;;;;;;5129072;27;20945;-70
2023/05/18 10:50:53;;;;;;;10.33;3.27;;;21.80;95.00;;;;;;5128898;27;20419;-71
2023/05/18 10:53:21;;;;;;;6.97;3.03;;;21.50;95.20;;;;;;5128346;27;20465;-71
2023/05/18 10:55:48;;;;;;;5.63;2.50;;;21.20;93.00;;;;;;5128505;27;20470;-71
2023/05/18 10:58:16;;;;;;;9.53;3.13;;;21.00;92.90;;;;;;5128904;27;20424;-71
2023/05/18 11:00:48;;;;;;;7.07;2.90;;;21.10;93.30;;;;;;5111595;27;20429;-70
2023/05/18 11:03:16;;;;;;;10.50;2.93;;;21.40;92.10;;;;;;5111419;27;20427;-70
2023/05/18 11:05:42;;;;;;;12.97;3.80;;;21.60;93.30;;;;;;5129954;27;21178;-70
2023/05/18 11:08:08;;;;;;;12.90;3.57;;;21.40;92.30;;;;;;5129580;27;20419;-71
2023/05/18 11:10:46;;;;;;;10.70;3.40;;;21.50;94.80;;;;;;5110285;27;20437;-71
2023/05/18 11:13:13;;;;;;;8.43;3.20;;;21.70;96.00;;;;;;5128640;27;20241;-70
2023/05/18 11:16:00;;;;;;;10.40;3.53;;;21.80;94.30;;;;;;5109767;27;20430;-73
2023/05/18 11:18:34;;;;;;;11.93;3.57;;;21.90;93.90;;;;;;5128697;27;20417;-66
2023/05/18 11:21:00;;;;;;;14.00;3.63;;;21.80;93.70;;;;;;5129191;27;20797;-70
2023/05/18 11:23:30;;;;;;;6.67;2.67;;;21.80;93.00;;;;;;5129350;27;20421;-71
2023/05/18 11:26:01;;;;;;;7.53;2.80;;;21.90;93.70;;;;;;5129350;27;20197;-70
2023/05/18 11:28:28;;;;;;;14.33;3.07;;;22.10;93.80;;;;;;5128855;27;20422;-70
2023/05/18 11:30:54;;;;;;;7.30;3.03;;;22.10;93.90;;;;;;5128382;27;20521;-69
2023/05/18 11:33:25;;;;;;;13.93;3.30;;;22.20;93.80;;;;;;5128500;27;20501;-67
2023/05/18 11:35:57;;;;;;;7.20;4.03;;;21.80;93.60;;;;;;5128148;27;20472;-66
2023/05/18 11:38:49;;;;;;;12.70;3.17;;;21.20;94.60;;;;;;5128278;27;20515;-65
2023/05/18 11:41:38;;;;;;;8.80;2.60;;;20.90;94.40;;;;;;5114460;27;20553;-66
2023/05/18 11:44:19;;;;;;;6.43;2.90;;;20.70;93.90;;;;;;5128272;27;20419;-66
2023/05/18 11:46:54;;;;;;;6.67;3.30;;;20.20;93.00;;;;;;5128218;27;20896;-66
2023/05/18 11:49:23;;;;;;;5.33;2.57;;;20.00;93.10;;;;;;5128312;28;20922;-67
2023/05/18 11:52:18;;;;;;;8.23;3.30;;;19.90;92.60;;;;;;5109187;28;20453;-67
2023/05/18 11:55:00;;;;;;;24.47;3.13;;;19.60;92.70;;;;;;5128249;27;20464;-66
2023/05/18 11:57:42;;;;;;;10.47;2.57;;;19.60;93.80;;;;;;5128290;27;20430;-68
2023/05/18 12:00:14;;;;;;;9.90;2.97;;;19.50;92.60;;;;;;5128311;28;20410;-66
2023/05/18 12:02:45;;;;;;;7.87;3.23;;;19.40;92.20;;;;;;5128269;28;20497;-67
2023/05/18 12:05:11;;;;;;;5.83;2.20;;;19.10;91.90;;;;;;5128723;27;20414;-67
2023/05/18 12:07:38;;;;;;;6.07;3.00;;;19.40;92.50;;;;;;5131742;27;20456;-65
2023/05/18 12:10:10;;;;;;;10.73;3.07;;;19.80;92.80;;;;;;5132558;27;20485;-66
2023/05/18 12:12:37;;;;;;;5.80;2.00;;;19.90;92.60;;;;;;5132300;27;21000;-67
2023/05/18 12:15:07;;;;;;;6.20;2.87;;;19.60;92.80;;;;;;5114078;27;21078;-66
2023/05/18 12:17:43;;;;;;;7.53;2.80;;;19.60;93.80;;;;;;5132559;27;20446;-65
2023/05/18 12:20:16;;;;;;;9.50;3.43;;;19.60;93.10;;;;;;5132603;27;20410;-67
2023/05/18 12:22:51;;;;;;;6.13;2.57;;;19.30;92.20;;;;;;5132589;27;20997;-65
2023/05/18 12:25:18;;;;;;;6.00;2.53;;;19.30;95.80;;;;;;5132559;27;20424;-66
2023/05/18 12:27:46;;;;;;;14.30;3.00;;;19.30;93.00;;;;;;5132395;27;20437;-66
2023/05/18 12:30:16;;;;;;;6.10;2.23;;;19.00;92.10;;;;;;5132420;27;20461;-66
2023/05/18 12:32:50;;;;;;;7.10;2.50;;;18.80;93.10;;;;;;5132539;27;20461;-67
2023/05/18 12:35:16;;;;;;;8.30;3.47;;;18.70;93.50;;;;;;5114668;27;20410;-66
2023/05/18 12:37:45;;;;;;;5.23;2.43;;;18.50;92.80;;;;;;5132275;27;20775;-67
2023/05/18 12:40:13;;;;;;;13.93;3.23;;;18.60;93.60;;;;;;5132368;27;20402;-65
2023/05/18 12:42:39;;;;;;;7.50;2.80;;;18.50;93.20;;;;;;5113730;27;20449;-67
2023/05/18 12:45:05;;;;;;;9.60;3.13;;;18.50;93.60;;;;;;5114178;27;20422;-65
2023/05/18 12:47:32;;;;;;;6.07;2.20;;;18.50;94.40;;;;;;5132233;27;20449;-66
2023/05/18 12:50:01;;;;;;;10.03;2.47;;;18.50;93.80;;;;;;5113579;27;20492;-65
2023/05/18 12:52:27;;;;;;;8.10;3.07;;;18.40;93.20;;;;;;5132240;27;20465;-67